Time;durP1;ratioP1;P1;durP2;ratioP2;P2;SDS_P1;SDS_P2;PMS_P1;PMS_P2;Temp;Humidity;BMP_temperature;BMP_pressure;BME280_temperature;BME280_humidity;BME280_pressure;Samples;Min_cycle;Max_cycle;Signal;HPM_P1;HPM_P2
2022/11/26 00:01:02;;;;;;;4.57;3.53;;;21.90;81.50;;;;;;4990460;28;20452;-76
2022/11/26 00:03:29;;;;;;;3.30;3.00;;;21.90;82.00;;;;;;4993916;28;20474;-76
2022/11/26 00:05:57;;;;;;;4.23;3.33;;;22.00;81.50;;;;;;5001365;28;20476;-77
2022/11/26 00:08:28;;;;;;;3.60;3.30;;;22.10;81.30;;;;;;4990763;28;21030;-76
2022/11/26 00:10:55;;;;;;;3.50;3.20;;;22.00;81.10;;;;;;4989911;28;20467;-77
2022/11/26 00:13:26;;;;;;;3.60;3.30;;;22.00;81.40;;;;;;4998832;28;20447;-76
2022/11/26 00:15:53;;;;;;;4.83;3.30;;;21.90;81.50;;;;;;4984820;28;20492;-76
2022/11/26 00:18:22;;;;;;;3.77;3.33;;;21.90;81.70;;;;;;4989185;28;20464;-76
2022/11/26 00:20:53;;;;;;;4.00;3.50;;;21.80;81.80;;;;;;4992289;28;20467;-75
2022/11/26 00:23:22;;;;;;;4.53;3.23;;;21.80;82.00;;;;;;4997712;28;20467;-76
2022/11/26 00:25:51;;;;;;;3.33;3.03;;;21.80;82.00;;;;;;4985427;28;20804;-76
2022/11/26 00:28:29;;;;;;;3.97;3.60;;;21.70;82.10;;;;;;4992429;28;20970;-76
2022/11/26 00:30:58;;;;;;;4.10;3.70;;;21.60;82.20;;;;;;4980307;28;20500;-77
2022/11/26 00:33:25;;;;;;;3.45;2.80;;;21.60;82.40;;;;;;4986117;28;20597;-75
2022/11/26 00:35:56;;;;;;;6.07;3.47;;;21.60;82.60;;;;;;4986532;28;20288;-74
2022/11/26 00:38:23;;;;;;;10.02;3.60;;;21.50;82.80;;;;;;5001607;28;20204;-76
2022/11/26 00:40:50;;;;;;;5.00;4.18;;;21.50;83.90;;;;;;4991558;28;20243;-74
2022/11/26 00:43:18;;;;;;;6.43;3.30;;;21.60;84.70;;;;;;5003932;28;20560;-74
2022/11/26 00:45:49;;;;;;;4.47;3.92;;;21.60;85.30;;;;;;4992047;28;20463;-75
2022/11/26 00:48:16;;;;;;;3.50;3.20;;;21.60;85.30;;;;;;5000249;28;20206;-75
2022/11/26 00:50:46;;;;;;;5.30;4.50;;;21.60;85.00;;;;;;4992504;28;20464;-76
2022/11/26 00:53:15;;;;;;;6.40;3.23;;;21.40;85.00;;;;;;5004476;28;20203;-75
2022/11/26 00:55:45;;;;;;;6.57;3.45;;;21.40;85.30;;;;;;4984704;28;20463;-76
2022/11/26 00:58:25;;;;;;;4.27;3.43;;;21.40;85.50;;;;;;4995437;28;20211;-75
2022/11/26 01:00:54;;;;;;;6.95;3.50;;;21.40;85.40;;;;;;4996248;28;20459;-75
2022/11/26 01:03:21;;;;;;;3.58;3.00;;;21.40;85.40;;;;;;5004744;28;20206;-75
2022/11/26 01:05:50;;;;;;;6.18;3.53;;;21.30;85.30;;;;;;5006109;28;20209;-75
2022/11/26 01:08:27;;;;;;;3.97;3.15;;;21.40;85.30;;;;;;5001113;28;20241;-75
2022/11/26 01:10:54;;;;;;;6.35;3.75;;;21.30;85.20;;;;;;4986207;28;20509;-76
2022/11/26 01:13:20;;;;;;;3.60;3.28;;;21.30;85.30;;;;;;4994737;28;20205;-76
2022/11/26 01:15:47;;;;;;;5.18;4.05;;;21.30;85.30;;;;;;4992817;28;20821;-77
2022/11/26 01:18:17;;;;;;;4.10;3.10;;;21.30;85.30;;;;;;4988595;28;20207;-76
2022/11/26 01:20:44;;;;;;;4.07;3.10;;;21.20;85.20;;;;;;4993303;28;20193;-76
2022/11/26 01:23:12;;;;;;;4.40;3.78;;;21.30;85.20;;;;;;5003504;28;20204;-76
2022/11/26 01:25:40;;;;;;;3.90;3.40;;;21.20;85.90;;;;;;4996171;28;20538;-76
2022/11/26 01:28:11;;;;;;;3.20;2.70;;;21.20;85.20;;;;;;4994679;28;20221;-75
2022/11/26 01:30:39;;;;;;;3.75;3.20;;;21.10;85.20;;;;;;4989454;28;20205;-76
2022/11/26 01:33:06;;;;;;;4.55;2.88;;;21.10;85.40;;;;;;4995075;28;20190;-75
2022/11/26 01:35:34;;;;;;;3.67;3.38;;;21.10;85.90;;;;;;4989998;28;20197;-76
2022/11/26 01:38:01;;;;;;;3.88;3.35;;;21.10;86.00;;;;;;4998930;28;20201;-76
2022/11/26 01:40:54;;;;;;;3.30;2.65;;;21.00;85.80;;;;;;4992530;28;20212;-76
2022/11/26 01:43:26;;;;;;;2.72;2.53;;;21.10;85.90;;;;;;4998432;28;20212;-75
2022/11/26 01:45:53;;;;;;;5.75;2.97;;;21.00;85.80;;;;;;4991867;28;20657;-76
2022/11/26 01:48:25;;;;;;;4.13;3.17;;;21.00;85.70;;;;;;4995292;28;20703;-76
2022/11/26 01:51:00;;;;;;;3.40;3.10;;;21.00;85.70;;;;;;4981906;28;20670;-76
2022/11/26 01:53:37;;;;;;;3.78;2.60;;;21.00;85.90;;;;;;4991536;28;20200;-76
2022/11/26 01:56:11;;;;;;;4.22;2.83;;;21.00;85.90;;;;;;5007740;28;20200;-75
2022/11/26 01:58:43;;;;;;;4.00;2.95;;;21.00;85.90;;;;;;5005757;28;20594;-75
2022/11/26 02:01:10;;;;;;;5.53;3.17;;;21.00;85.90;;;;;;4991116;28;20696;-76
2022/11/26 02:03:43;;;;;;;4.05;2.80;;;20.90;85.90;;;;;;4992125;28;20660;-75
2022/11/26 02:06:17;;;;;;;2.80;2.60;;;20.90;86.10;;;;;;4999071;28;20610;-76
2022/11/26 02:08:44;;;;;;;2.97;2.50;;;20.80;86.80;;;;;;4991703;28;20223;-76
2022/11/26 02:11:17;;;;;;;2.65;2.15;;;20.80;87.00;;;;;;5000461;28;20268;-75
2022/11/26 02:13:47;;;;;;;3.80;3.35;;;20.80;86.90;;;;;;4999536;28;20285;-76
2022/11/26 02:16:25;;;;;;;2.50;2.30;;;20.80;86.80;;;;;;4993616;28;20228;-76
2022/11/26 02:19:00;;;;;;;2.90;2.50;;;20.80;86.80;;;;;;4986262;28;20236;-77
2022/11/26 02:21:32;;;;;;;2.85;2.65;;;20.80;86.90;;;;;;4989333;28;20294;-76
2022/11/26 02:24:25;;;;;;;3.05;2.47;;;20.80;87.00;;;;;;4984700;28;20615;-76
2022/11/26 02:27:21;;;;;;;3.25;2.95;;;20.80;86.80;;;;;;5001546;28;20284;-76
2022/11/26 02:30:06;;;;;;;3.55;2.28;;;20.80;86.80;;;;;;4993631;28;20209;-74
2022/11/26 02:32:42;;;;;;;2.55;2.35;;;20.80;86.80;;;;;;5000921;28;20247;-74
2022/11/26 02:35:17;;;;;;;3.42;2.78;;;20.70;86.80;;;;;;4993610;28;20199;-76
2022/11/26 02:37:49;;;;;;;3.60;2.45;;;20.70;87.20;;;;;;5000911;28;20634;-76
2022/11/26 02:40:15;;;;;;;2.78;2.58;;;20.60;87.80;;;;;;4988496;28;20197;-75
2022/11/26 02:42:42;;;;;;;2.80;2.20;;;20.60;87.80;;;;;;4981070;28;20219;-76
2022/11/26 02:45:14;;;;;;;2.67;2.47;;;20.60;87.80;;;;;;4990247;28;20206;-74
2022/11/26 02:47:44;;;;;;;2.60;2.35;;;20.60;87.60;;;;;;4995703;28;20221;-77
2022/11/26 02:50:16;;;;;;;3.47;3.17;;;20.60;87.70;;;;;;4994018;28;20615;-76
2022/11/26 02:52:44;;;;;;;2.85;2.50;;;20.60;87.70;;;;;;5002779;28;20664;-76
2022/11/26 02:55:15;;;;;;;3.90;3.10;;;20.60;87.60;;;;;;5001719;28;20211;-76
2022/11/26 02:57:47;;;;;;;2.88;2.40;;;20.60;87.80;;;;;;4998071;28;20190;-74
2022/11/26 03:00:16;;;;;;;3.03;2.75;;;20.60;87.80;;;;;;4991051;28;20220;-75
2022/11/26 03:02:47;;;;;;;2.33;2.03;;;20.50;87.80;;;;;;5000062;28;20204;-75
2022/11/26 03:05:16;;;;;;;2.45;2.25;;;20.50;87.80;;;;;;4995434;28;20204;-74
2022/11/26 03:07:45;;;;;;;3.80;2.50;;;20.50;87.90;;;;;;5004310;28;20297;-75
2022/11/26 03:10:12;;;;;;;3.10;2.80;;;20.50;88.50;;;;;;5005256;28;20232;-74
2022/11/26 03:12:39;;;;;;;2.47;2.28;;;20.40;88.70;;;;;;5002338;28;20201;-74
2022/11/26 03:15:06;;;;;;;3.35;2.25;;;20.40;88.60;;;;;;4998380;28;20211;-75
2022/11/26 03:17:35;;;;;;;2.72;2.50;;;20.40;88.60;;;;;;4992419;28;20197;-74
2022/11/26 03:20:02;;;;;;;3.53;2.58;;;20.40;88.60;;;;;;4993671;28;20194;-74
2022/11/26 03:22:29;;;;;;;4.70;3.03;;;20.40;88.60;;;;;;5010264;28;20224;-73
2022/11/26 03:24:56;;;;;;;2.40;2.20;;;20.50;88.70;;;;;;5002804;28;20196;-74
2022/11/26 03:27:22;;;;;;;2.58;2.17;;;20.40;88.60;;;;;;4987413;28;20228;-74
2022/11/26 03:29:49;;;;;;;3.35;2.38;;;20.40;88.70;;;;;;4992328;28;20672;-76
2022/11/26 03:32:16;;;;;;;2.70;2.25;;;20.40;88.70;;;;;;5000181;28;20196;-75
2022/11/26 03:34:44;;;;;;;2.58;2.15;;;20.40;88.70;;;;;;4997278;28;20673;-74
2022/11/26 03:37:10;;;;;;;3.70;2.55;;;20.30;89.00;;;;;;4997748;28;20680;-74
2022/11/26 03:39:37;;;;;;;2.67;2.05;;;20.30;89.50;;;;;;4991064;28;20601;-74
2022/11/26 03:42:04;;;;;;;2.65;2.45;;;20.30;89.50;;;;;;4987079;28;20205;-74
2022/11/26 03:44:31;;;;;;;3.83;2.60;;;20.30;89.50;;;;;;4987413;28;20201;-74
2022/11/26 03:46:58;;;;;;;2.72;2.20;;;20.30;89.50;;;;;;4997136;28;20239;-75
2022/11/26 03:49:25;;;;;;;2.50;2.30;;;20.30;89.50;;;;;;4991507;28;20197;-75
2022/11/26 03:51:53;;;;;;;2.28;1.80;;;20.30;89.50;;;;;;5004983;28;20203;-76
2022/11/26 03:54:19;;;;;;;2.08;1.85;;;20.30;89.60;;;;;;4996651;28;20205;-76
2022/11/26 03:56:46;;;;;;;3.15;2.03;;;20.30;89.60;;;;;;4995774;28;20201;-75
2022/11/26 03:59:13;;;;;;;2.38;1.67;;;20.20;89.50;;;;;;5000943;28;20210;-74
2022/11/26 04:01:40;;;;;;;3.00;2.55;;;20.20;89.60;;;;;;5002256;28;20757;-76
2022/11/26 04:04:06;;;;;;;3.25;2.33;;;20.20;89.60;;;;;;4995349;28;20661;-76
2022/11/26 04:06:33;;;;;;;2.50;2.00;;;20.20;89.70;;;;;;5002715;28;20204;-75
2022/11/26 04:09:01;;;;;;;2.42;2.05;;;20.20;90.10;;;;;;4992703;28;20225;-75
2022/11/26 04:11:28;;;;;;;3.10;2.22;;;20.20;90.20;;;;;;5000228;28;20204;-76
2022/11/26 04:13:55;;;;;;;2.10;1.80;;;20.20;90.10;;;;;;4998684;28;20236;-75
2022/11/26 04:16:21;;;;;;;2.30;2.10;;;20.20;90.10;;;;;;4995686;28;20228;-75
2022/11/26 04:18:48;;;;;;;1.75;1.65;;;20.20;90.10;;;;;;5000279;28;20193;-74
2022/11/26 04:21:15;;;;;;;1.90;1.70;;;20.20;90.10;;;;;;4992350;28;20204;-74
2022/11/26 04:23:42;;;;;;;2.40;2.20;;;20.10;90.10;;;;;;4998534;28;20576;-75
2022/11/26 04:26:10;;;;;;;2.63;1.90;;;20.10;90.10;;;;;;4992926;28;20204;-74
2022/11/26 04:28:37;;;;;;;2.20;2.00;;;20.10;90.10;;;;;;4992928;28;20213;-74
2022/11/26 04:31:03;;;;;;;2.53;2.33;;;20.10;90.20;;;;;;4993174;28;20200;-74
2022/11/26 04:33:30;;;;;;;2.10;1.90;;;20.10;90.20;;;;;;4994084;28;20679;-74
2022/11/26 04:35:57;;;;;;;2.58;2.38;;;20.10;90.20;;;;;;4993879;28;20197;-74
2022/11/26 04:38:24;;;;;;;3.50;2.28;;;20.00;90.20;;;;;;4994611;28;20208;-75
2022/11/26 04:40:50;;;;;;;2.10;1.90;;;20.00;90.40;;;;;;4989906;28;20201;-76
2022/11/26 04:43:19;;;;;;;3.00;2.25;;;20.20;90.70;;;;;;4993121;28;20197;-73
2022/11/26 04:45:48;;;;;;;2.67;2.03;;;20.60;89.60;;;;;;5000048;28;20208;-74
2022/11/26 04:48:15;;;;;;;2.40;2.20;;;20.70;88.70;;;;;;4988112;28;20295;-76
2022/11/26 04:50:41;;;;;;;2.47;2.10;;;20.70;88.40;;;;;;4994287;28;20615;-74
2022/11/26 04:53:08;;;;;;;2.55;2.10;;;20.70;88.30;;;;;;5008289;28;20645;-74
2022/11/26 04:55:35;;;;;;;2.33;2.13;;;20.60;88.30;;;;;;5001787;28;20201;-75
2022/11/26 04:58:01;;;;;;;2.60;1.70;;;20.50;88.40;;;;;;5000320;28;20199;-74
2022/11/26 05:00:29;;;;;;;2.10;1.90;;;20.40;88.80;;;;;;5002999;28;20216;-75
2022/11/26 05:02:56;;;;;;;2.65;1.70;;;20.40;89.00;;;;;;4997627;28;20204;-74
2022/11/26 05:05:23;;;;;;;2.20;2.00;;;20.30;89.20;;;;;;4997299;28;20208;-75
2022/11/26 05:07:50;;;;;;;2.03;1.88;;;20.30;89.50;;;;;;5000394;28;20699;-75
2022/11/26 05:10:17;;;;;;;2.40;2.20;;;20.20;89.60;;;;;;5001394;28;20245;-76
2022/11/26 05:12:43;;;;;;;2.40;2.10;;;20.20;89.70;;;;;;4996560;28;20197;-75
2022/11/26 05:15:11;;;;;;;2.28;2.08;;;20.20;89.90;;;;;;4994199;28;20200;-75
2022/11/26 05:17:39;;;;;;;2.30;2.08;;;20.20;90.00;;;;;;5002963;28;20205;-76
2022/11/26 05:20:07;;;;;;;2.47;1.85;;;20.10;90.00;;;;;;4993560;28;20584;-76
2022/11/26 05:22:34;;;;;;;2.05;1.83;;;20.10;90.10;;;;;;5004375;28;20656;-75
2022/11/26 05:25:00;;;;;;;2.25;2.05;;;20.00;90.30;;;;;;5008932;28;20201;-75
2022/11/26 05:27:27;;;;;;;1.77;1.60;;;20.10;90.50;;;;;;4992566;28;20425;-75
2022/11/26 05:29:54;;;;;;;2.28;1.65;;;20.60;90.00;;;;;;5001577;28;20200;-76
2022/11/26 05:32:21;;;;;;;1.95;1.73;;;20.90;88.50;;;;;;4998996;28;20201;-75
2022/11/26 05:34:49;;;;;;;3.00;2.03;;;21.00;87.70;;;;;;4999216;28;20205;-75
2022/11/26 05:37:16;;;;;;;2.15;1.98;;;21.20;87.10;;;;;;4993642;28;20205;-75
2022/11/26 05:39:43;;;;;;;2.10;2.00;;;21.30;86.70;;;;;;4994484;28;20196;-76
2022/11/26 05:42:09;;;;;;;2.27;1.60;;;21.40;86.40;;;;;;4993650;28;20904;-76
2022/11/26 05:44:36;;;;;;;1.80;1.70;;;21.40;85.90;;;;;;4991490;28;20456;-74
2022/11/26 05:47:03;;;;;;;2.07;1.97;;;21.50;85.60;;;;;;4993173;28;20488;-74
2022/11/26 05:49:30;;;;;;;1.83;1.73;;;21.50;85.40;;;;;;4991054;28;20801;-75
2022/11/26 05:51:58;;;;;;;1.97;1.77;;;21.60;85.00;;;;;;4991110;28;20456;-74
2022/11/26 05:54:25;;;;;;;2.00;1.80;;;21.70;84.80;;;;;;4996167;28;20470;-74
2022/11/26 05:56:52;;;;;;;2.27;1.90;;;21.70;84.60;;;;;;4995631;28;20460;-76
2022/11/26 05:59:19;;;;;;;2.03;1.90;;;21.70;84.30;;;;;;5005527;28;20543;-75
2022/11/26 06:01:46;;;;;;;1.63;1.53;;;21.80;84.20;;;;;;5000071;28;20456;-76
2022/11/26 06:04:12;;;;;;;2.40;1.80;;;21.80;83.90;;;;;;4995545;28;20464;-76
2022/11/26 06:06:39;;;;;;;2.27;2.07;;;21.80;83.80;;;;;;4991765;28;20452;-74
2022/11/26 06:09:07;;;;;;;2.00;1.53;;;21.80;83.80;;;;;;5001212;28;20816;-75
2022/11/26 06:11:34;;;;;;;1.57;1.30;;;21.80;83.70;;;;;;5001235;28;20463;-74
2022/11/26 06:14:00;;;;;;;1.70;1.60;;;21.80;83.40;;;;;;5010040;28;20478;-75
2022/11/26 06:16:27;;;;;;;1.83;1.63;;;21.90;83.40;;;;;;5002312;28;20498;-75
2022/11/26 06:18:54;;;;;;;1.80;1.70;;;21.90;83.10;;;;;;4992086;28;20459;-75
2022/11/26 06:21:20;;;;;;;1.77;1.57;;;21.90;83.00;;;;;;4989905;28;20456;-76
2022/11/26 06:23:47;;;;;;;2.30;1.70;;;21.90;82.90;;;;;;5000934;28;20455;-75
2022/11/26 06:26:15;;;;;;;1.50;1.40;;;21.90;82.70;;;;;;4993652;28;20963;-75
2022/11/26 06:28:42;;;;;;;2.13;1.70;;;21.90;83.50;;;;;;4994161;28;20484;-75
2022/11/26 06:31:09;;;;;;;1.90;1.80;;;21.90;82.80;;;;;;4992692;28;20514;-75
2022/11/26 06:33:36;;;;;;;3.20;1.73;;;21.80;82.60;;;;;;5002070;28;20503;-75
2022/11/26 06:36:04;;;;;;;1.97;1.80;;;21.80;82.60;;;;;;4991780;28;20551;-74
2022/11/26 06:38:31;;;;;;;2.33;1.63;;;21.80;82.60;;;;;;5002846;28;20465;-74
2022/11/26 06:40:59;;;;;;;1.77;1.67;;;21.90;82.70;;;;;;4993891;28;20842;-74
2022/11/26 06:43:28;;;;;;;1.70;1.60;;;21.90;82.60;;;;;;4991318;28;21082;-74
2022/11/26 06:45:55;;;;;;;1.63;1.53;;;21.90;82.50;;;;;;4997499;28;20456;-74
2022/11/26 06:48:25;;;;;;;1.70;1.20;;;21.90;82.30;;;;;;4996921;28;20485;-74
2022/11/26 06:50:52;;;;;;;2.13;1.93;;;21.90;82.10;;;;;;4989229;28;20831;-75
2022/11/26 06:53:19;;;;;;;1.90;1.60;;;22.00;82.20;;;;;;4994193;28;20503;-75
2022/11/26 06:55:45;;;;;;;2.00;1.40;;;22.00;82.10;;;;;;4995444;28;20471;-76
2022/11/26 06:58:13;;;;;;;1.90;1.63;;;22.00;82.10;;;;;;4994546;28;20928;-76
2022/11/26 07:00:41;;;;;;;1.63;1.40;;;22.00;81.90;;;;;;4991022;28;20538;-76
2022/11/26 07:03:08;;;;;;;3.37;2.40;;;22.10;81.80;;;;;;5002393;28;20440;-76
2022/11/26 07:05:35;;;;;;;1.80;1.70;;;22.10;81.60;;;;;;4992500;28;20571;-76
2022/11/26 07:08:02;;;;;;;1.50;1.40;;;22.10;81.40;;;;;;4999545;28;20488;-77
2022/11/26 07:10:28;;;;;;;1.47;1.37;;;22.20;81.40;;;;;;5000529;28;20467;-77
2022/11/26 07:12:55;;;;;;;2.03;1.70;;;22.20;81.20;;;;;;5007619;28;20950;-76
2022/11/26 07:15:22;;;;;;;2.07;1.83;;;22.20;81.00;;;;;;4993829;28;20484;-78
2022/11/26 07:17:50;;;;;;;1.77;1.60;;;22.20;80.90;;;;;;5002978;28;20448;-76
2022/11/26 07:20:17;;;;;;;1.63;1.47;;;22.20;80.70;;;;;;4986710;28;20819;-76
2022/11/26 07:22:43;;;;;;;1.60;1.50;;;22.30;80.70;;;;;;5002357;28;20834;-76
2022/11/26 07:25:11;;;;;;;1.70;1.20;;;22.30;80.60;;;;;;4999604;28;20818;-76
2022/11/26 07:27:37;;;;;;;1.87;1.50;;;22.30;80.50;;;;;;4994356;28;20483;-76
2022/11/26 07:30:05;;;;;;;1.70;1.60;;;22.30;80.30;;;;;;4991722;28;20469;-77
2022/11/26 07:32:32;;;;;;;1.70;1.60;;;22.30;80.30;;;;;;4995647;28;20990;-75
2022/11/26 07:35:01;;;;;;;1.40;1.30;;;22.30;80.20;;;;;;4991233;28;20455;-76
2022/11/26 07:37:28;;;;;;;1.50;1.40;;;22.30;80.10;;;;;;4992932;28;20471;-77
2022/11/26 07:39:55;;;;;;;2.10;1.90;;;22.30;80.10;;;;;;4997265;28;20452;-77
2022/11/26 07:42:23;;;;;;;1.77;1.40;;;22.40;80.10;;;;;;4997696;28;20455;-78
2022/11/26 07:44:50;;;;;;;1.60;1.50;;;22.40;80.00;;;;;;4997236;28;20471;-76
2022/11/26 07:47:17;;;;;;;1.80;1.67;;;22.30;79.90;;;;;;4991085;28;20464;-76
2022/11/26 07:49:44;;;;;;;1.93;1.60;;;22.30;80.00;;;;;;5004802;28;20867;-78
2022/11/26 07:52:12;;;;;;;1.60;1.50;;;22.30;79.90;;;;;;4993178;28;20468;-77
2022/11/26 07:54:38;;;;;;;1.83;1.73;;;22.40;80.00;;;;;;4991813;28;20827;-77
2022/11/26 07:57:05;;;;;;;2.37;1.60;;;22.40;79.90;;;;;;4988821;28;20463;-77
2022/11/26 07:59:32;;;;;;;2.03;1.43;;;22.40;80.20;;;;;;5001079;28;20456;-76
2022/11/26 08:01:59;;;;;;;1.63;1.53;;;22.40;80.00;;;;;;4998445;28;20465;-76
2022/11/26 08:04:26;;;;;;;1.50;1.23;;;22.40;79.80;;;;;;4998697;28;20459;-76
2022/11/26 08:06:52;;;;;;;3.50;1.40;;;22.40;79.80;;;;;;4995881;28;20464;-77
2022/11/26 08:09:21;;;;;;;2.13;1.73;;;22.40;79.70;;;;;;4997745;28;20490;-77
2022/11/26 08:11:47;;;;;;;1.30;1.20;;;22.40;79.60;;;;;;4994527;28;20468;-76
2022/11/26 08:14:14;;;;;;;1.53;1.33;;;22.40;79.50;;;;;;4995207;28;20456;-75
2022/11/26 08:16:41;;;;;;;1.40;1.30;;;22.50;79.50;;;;;;4996026;28;20483;-76
2022/11/26 08:19:12;;;;;;;1.70;1.40;;;22.50;79.50;;;;;;4998218;28;20440;-74
2022/11/26 08:21:39;;;;;;;1.70;1.60;;;22.50;79.50;;;;;;4995526;28;20448;-75
2022/11/26 08:24:07;;;;;;;1.80;1.40;;;22.40;80.50;;;;;;5002659;28;20451;-76
2022/11/26 08:26:36;;;;;;;1.70;1.60;;;22.40;80.30;;;;;;4999678;28;20531;-74
2022/11/26 08:29:03;;;;;;;1.50;1.37;;;22.50;80.60;;;;;;4996191;28;20487;-76
2022/11/26 08:31:30;;;;;;;1.80;1.70;;;22.50;80.70;;;;;;5006568;28;20467;-74
2022/11/26 08:33:57;;;;;;;2.10;1.50;;;22.50;80.60;;;;;;4997449;28;20460;-75
2022/11/26 08:36:24;;;;;;;1.57;1.47;;;22.50;80.70;;;;;;5012434;28;20458;-74
2022/11/26 08:38:51;;;;;;;2.00;1.87;;;22.50;80.80;;;;;;4998709;28;20463;-75
2022/11/26 08:41:18;;;;;;;2.03;1.83;;;22.50;80.70;;;;;;5001931;28;20485;-75
2022/11/26 08:43:46;;;;;;;2.90;1.57;;;22.50;80.90;;;;;;5005000;28;20815;-74
2022/11/26 08:46:13;;;;;;;2.57;1.63;;;22.50;80.70;;;;;;4999963;28;20553;-74
2022/11/26 08:48:40;;;;;;;1.93;1.70;;;22.50;80.70;;;;;;4989073;28;20855;-75
2022/11/26 08:51:08;;;;;;;1.53;1.43;;;22.60;80.60;;;;;;4996307;28;20530;-75
2022/11/26 08:53:35;;;;;;;2.17;2.07;;;22.50;80.40;;;;;;5002552;28;20470;-75
2022/11/26 08:56:03;;;;;;;2.77;2.00;;;22.50;80.20;;;;;;4997264;28;20471;-74
2022/11/26 08:58:32;;;;;;;3.60;2.07;;;22.50;79.50;;;;;;4998451;28;20440;-75
2022/11/26 09:01:00;;;;;;;2.57;2.23;;;22.50;79.40;;;;;;4999035;28;20466;-75
2022/11/26 09:03:31;;;;;;;1.80;1.70;;;22.50;79.10;;;;;;5008028;28;20903;-76
2022/11/26 09:06:01;;;;;;;2.37;2.00;;;22.50;78.80;;;;;;4994235;28;20503;-75
2022/11/26 09:08:30;;;;;;;2.27;1.77;;;22.60;78.50;;;;;;4995403;28;20978;-75
2022/11/26 09:10:56;;;;;;;2.27;2.03;;;22.60;78.40;;;;;;4996722;28;20981;-75
2022/11/26 09:13:23;;;;;;;5.87;1.87;;;22.50;78.10;;;;;;4997519;28;20459;-75
2022/11/26 09:15:50;;;;;;;2.03;1.80;;;22.50;78.00;;;;;;4996674;28;20493;-75
2022/11/26 09:18:18;;;;;;;2.10;2.00;;;22.50;77.90;;;;;;5001027;28;20455;-76
2022/11/26 09:20:45;;;;;;;3.33;1.83;;;22.50;77.90;;;;;;4999370;28;20464;-75
2022/11/26 09:23:12;;;;;;;1.83;1.63;;;22.40;77.90;;;;;;5004324;28;20447;-76
2022/11/26 09:25:39;;;;;;;2.50;2.30;;;22.40;77.90;;;;;;4991454;28;20452;-75
2022/11/26 09:28:06;;;;;;;2.90;1.50;;;22.40;78.10;;;;;;5001036;28;20484;-75
2022/11/26 09:30:33;;;;;;;2.37;1.80;;;22.30;77.90;;;;;;5001379;28;20490;-75
2022/11/26 09:33:00;;;;;;;1.90;1.60;;;22.30;77.90;;;;;;4992790;28;20464;-75
2022/11/26 09:35:28;;;;;;;4.67;2.00;;;22.20;78.10;;;;;;4994620;28;20464;-76
2022/11/26 09:37:55;;;;;;;3.30;2.27;;;22.30;78.60;;;;;;4998828;28;20487;-76
2022/11/26 09:40:30;;;;;;;5.27;1.60;;;22.30;78.60;;;;;;4992537;28;20541;-75
2022/11/26 09:43:05;;;;;;;2.67;2.00;;;21.50;81.80;;;;;;4992330;28;20452;-74
2022/11/26 09:45:40;;;;;;;2.33;2.13;;;21.10;83.40;;;;;;4995674;28;20459;-75
2022/11/26 09:48:14;;;;;;;4.27;2.00;;;21.00;83.90;;;;;;4991090;28;20465;-75
2022/11/26 09:50:46;;;;;;;3.13;1.63;;;21.00;84.20;;;;;;5004514;28;20541;-75
2022/11/26 09:53:17;;;;;;;9.73;1.87;;;20.90;86.10;;;;;;4992237;28;20467;-75
2022/11/26 09:55:48;;;;;;;2.65;2.45;;;21.00;86.00;;;;;;4998003;28;20827;-76
2022/11/26 09:58:19;;;;;;;3.67;2.00;;;21.00;86.10;;;;;;4992890;28;20211;-75
2022/11/26 10:00:48;;;;;;;7.00;1.70;;;21.00;85.90;;;;;;4997933;28;20506;-74
2022/11/26 10:03:17;;;;;;;6.40;3.73;;;21.10;86.20;;;;;;4989351;28;20464;-75
2022/11/26 10:05:57;;;;;;;2.55;2.17;;;20.90;86.20;;;;;;5000246;28;20462;-76
2022/11/26 10:09:02;;;;;;;4.27;1.93;;;21.00;86.40;;;;;;4989639;28;20206;-75
2022/11/26 10:11:36;;;;;;;2.50;1.97;;;21.20;86.00;;;;;;4963374;28;20452;-75
2022/11/26 10:14:15;;;;;;;6.83;3.03;;;21.10;86.70;;;;;;4993725;28;20866;-76
2022/11/26 10:16:46;;;;;;;4.35;2.53;;;21.10;86.30;;;;;;4992825;28;20523;-75
2022/11/26 10:19:23;;;;;;;3.60;2.63;;;21.10;86.10;;;;;;4993982;28;20691;-75
2022/11/26 10:21:54;;;;;;;5.10;2.43;;;21.10;85.60;;;;;;5003952;28;20935;-75
2022/11/26 10:24:27;;;;;;;3.43;3.13;;;21.10;85.00;;;;;;4999225;28;20463;-75
2022/11/26 10:26:56;;;;;;;3.45;2.38;;;21.10;85.30;;;;;;4995710;28;20467;-76
2022/11/26 10:29:24;;;;;;;4.30;2.73;;;21.10;85.10;;;;;;4993656;28;20229;-74
2022/11/26 10:31:56;;;;;;;2.50;2.30;;;21.10;85.20;;;;;;4981407;28;20962;-75
2022/11/26 10:34:27;;;;;;;3.50;2.23;;;21.10;85.20;;;;;;4991939;28;20470;-75
2022/11/26 10:36:55;;;;;;;4.03;2.80;;;21.10;85.30;;;;;;5001979;28;20459;-75
2022/11/26 10:39:21;;;;;;;4.37;2.97;;;21.00;85.20;;;;;;4992387;28;20915;-74
2022/11/26 10:41:48;;;;;;;3.10;2.10;;;21.00;85.30;;;;;;5008744;28;20440;-74
2022/11/26 10:44:36;;;;;;;3.30;2.00;;;21.00;85.40;;;;;;5005782;28;20455;-75
2022/11/26 10:47:20;;;;;;;2.25;2.05;;;21.00;85.30;;;;;;4994372;28;20948;-75
2022/11/26 10:49:47;;;;;;;3.87;1.90;;;21.00;85.50;;;;;;5000817;28;20285;-74
2022/11/26 10:52:19;;;;;;;3.30;2.60;;;20.90;85.60;;;;;;4987221;28;20493;-74
2022/11/26 10:54:46;;;;;;;2.50;2.30;;;20.90;85.50;;;;;;4991237;28;20468;-80
2022/11/26 10:57:17;;;;;;;2.43;1.97;;;20.90;85.50;;;;;;5002297;28;20487;-77
2022/11/26 10:59:47;;;;;;;2.40;1.90;;;20.90;85.60;;;;;;4991852;28;20835;-77
2022/11/26 11:02:40;;;;;;;3.17;2.15;;;20.90;85.70;;;;;;4985490;28;20527;-77
2022/11/26 11:05:09;;;;;;;3.63;2.30;;;20.90;85.60;;;;;;4966988;28;20291;-77
2022/11/26 11:07:42;;;;;;;3.15;2.47;;;20.90;85.50;;;;;;4982921;28;20452;-76
2022/11/26 11:10:20;;;;;;;3.10;2.50;;;20.90;85.60;;;;;;4990104;28;20311;-77
2022/11/26 11:12:50;;;;;;;3.63;1.90;;;20.90;85.50;;;;;;4993366;28;21046;-77
2022/11/26 11:15:23;;;;;;;3.65;2.47;;;20.90;85.50;;;;;;4991865;28;20531;-77
2022/11/26 11:18:01;;;;;;;2.27;1.60;;;20.90;85.40;;;;;;4985904;28;20204;-76
2022/11/26 11:20:38;;;;;;;2.10;1.83;;;20.90;85.30;;;;;;4997814;28;20827;-77
2022/11/26 11:23:18;;;;;;;5.13;2.57;;;20.90;85.10;;;;;;4986518;28;20544;-76
2022/11/26 11:25:48;;;;;;;3.53;2.53;;;20.90;86.40;;;;;;4990279;28;20464;-81
2022/11/26 11:28:20;;;;;;;6.50;2.93;;;20.80;87.90;;;;;;4993992;28;20656;-77
2022/11/26 11:31:01;;;;;;;4.28;2.53;;;20.80;88.00;;;;;;4980180;28;20499;-81
2022/11/26 11:33:29;;;;;;;3.90;2.80;;;20.90;88.00;;;;;;4980720;28;20679;-83
2022/11/26 11:36:05;;;;;;;3.20;2.53;;;21.00;88.20;;;;;;4978799;28;20894;-86
2022/11/26 11:38:45;;;;;;;3.83;2.30;;;21.20;88.20;;;;;;4989628;28;20448;-83
2022/11/26 11:41:23;;;;;;;2.73;2.53;;;21.30;87.70;;;;;;4991854;28;20201;-85
2022/11/26 11:43:50;;;;;;;2.47;2.10;;;21.30;87.80;;;;;;4991730;28;20466;-84
2022/11/26 11:46:52;;;;;;;2.80;2.28;;;21.30;87.90;;;;;;4983340;28;20197;-84
2022/11/26 11:49:31;;;;;;;2.17;1.97;;;21.30;87.90;;;;;;4982964;28;20631;-84
2022/11/26 11:52:13;;;;;;;4.20;2.20;;;21.40;88.60;;;;;;4990107;28;20958;-84
2022/11/26 11:54:55;;;;;;;3.40;2.10;;;21.40;88.10;;;;;;4994624;28;20460;-85
2022/11/26 11:57:31;;;;;;;2.47;2.13;;;21.40;87.80;;;;;;4992075;28;20542;-85
2022/11/26 12:00:12;;;;;;;2.30;1.70;;;21.50;87.80;;;;;;4984782;28;20479;-91
2022/11/26 12:03:04;;;;;;;2.40;1.90;;;21.50;87.70;;;;;;4988956;28;20463;-83
2022/11/26 12:05:52;;;;;;;2.07;1.67;;;21.50;87.90;;;;;;4993248;28;20468;-83
2022/11/26 12:08:32;;;;;;;2.60;2.10;;;21.50;88.20;;;;;;4987616;28;20467;-84
2022/11/26 12:11:13;;;;;;;2.93;1.60;;;21.50;88.20;;;;;;4976338;28;20802;-86
2022/11/26 12:13:47;;;;;;;2.30;2.10;;;21.50;88.20;;;;;;4984774;28;20467;-86
2022/11/26 12:16:16;;;;;;;2.93;2.10;;;21.50;88.10;;;;;;4982012;28;20491;-82
2022/11/26 12:18:52;;;;;;;2.83;2.47;;;21.50;88.00;;;;;;4983538;28;20486;-86
2022/11/26 12:21:27;;;;;;;2.00;1.80;;;21.60;87.90;;;;;;4981072;28;20456;-86
2022/11/26 12:23:57;;;;;;;3.63;2.33;;;21.60;88.10;;;;;;4982493;28;20547;-83
2022/11/26 12:26:30;;;;;;;2.30;2.10;;;21.60;87.90;;;;;;4986396;28;20445;-83
2022/11/26 12:29:03;;;;;;;1.80;1.50;;;21.60;87.90;;;;;;4984357;28;20460;-83
2022/11/26 12:31:35;;;;;;;2.53;2.07;;;21.60;88.10;;;;;;4991137;28;20839;-83
2022/11/26 12:34:08;;;;;;;3.17;1.97;;;21.60;88.10;;;;;;4987564;28;20467;-83
2022/11/26 12:36:42;;;;;;;2.87;1.93;;;21.60;88.20;;;;;;4989983;28;20448;-82
2022/11/26 12:39:17;;;;;;;2.20;1.83;;;21.60;88.10;;;;;;4989782;28;20460;-84
2022/11/26 12:41:52;;;;;;;1.90;1.30;;;21.60;87.90;;;;;;4988275;28;20466;-85
2022/11/26 12:44:26;;;;;;;2.20;2.00;;;21.70;87.90;;;;;;4984301;28;20466;-87
2022/11/26 12:46:58;;;;;;;2.23;2.03;;;21.60;87.80;;;;;;4980870;28;20535;-84
2022/11/26 12:49:35;;;;;;;2.20;1.67;;;21.60;88.10;;;;;;4982203;28;20459;-85
2022/11/26 12:52:17;;;;;;;3.50;2.00;;;21.60;88.10;;;;;;4986391;28;20482;-83
2022/11/26 12:54:51;;;;;;;1.87;1.67;;;21.70;88.00;;;;;;4985481;28;20460;-82
2022/11/26 12:57:24;;;;;;;2.50;1.73;;;21.70;87.90;;;;;;4988020;28;20444;-84
2022/11/26 12:59:57;;;;;;;4.03;1.87;;;21.70;87.80;;;;;;4990314;28;20459;-85
2022/11/26 13:02:26;;;;;;;2.03;1.83;;;21.80;87.70;;;;;;4988180;28;20464;-86